Time;durP1;ratioP1;P1;durP2;ratioP2;P2;SDS_P1;SDS_P2;PMS_P1;PMS_P2;Temp;Humidity;BMP_temperature;BMP_pressure;BME280_temperature;BME280_humidity;BME280_pressure;Samples;Min_cycle;Max_cycle;Signal;HPM_P1;HPM_P2
2021/07/30 00:00:31;;;;;;;6.60;4.67;;;;;;;;;;5069958;28;20205;-75
2021/07/30 00:02:58;;;;;;;7.60;4.60;;;;;;;;;;5070323;28;20568;-75
2021/07/30 00:05:25;;;;;;;7.27;4.27;;;;;;;;;;5084683;28;20194;-75
2021/07/30 00:07:52;;;;;;;7.33;4.40;;;;;;;;;;5113429;28;20354;-76
2021/07/30 00:10:21;;;;;;;5.47;4.40;;;;;;;;;;5113223;28;20304;-73
2021/07/30 00:12:50;;;;;;;4.90;4.03;;;;;;;;;;5112632;28;20194;-76
2021/07/30 00:15:17;;;;;;;6.90;4.43;;;;;;;;;;5113126;28;20651;-77
2021/07/30 00:17:44;;;;;;;6.33;4.67;;;;;;;;;;5112979;28;20737;-76
2021/07/30 00:20:11;;;;;;;6.67;4.40;;;;;;;;;;5112981;28;20293;-76
2021/07/30 00:22:39;;;;;;;5.87;4.47;;;;;;;;;;5113040;28;20205;-76
2021/07/30 00:25:06;;;;;;;6.90;4.30;;;;;;;;;;5112794;28;20198;-76
2021/07/30 00:27:35;;;;;;;6.17;4.57;;;;;;;;;;5112675;28;20209;-76
2021/07/30 00:30:02;;;;;;;8.37;4.70;;;;;;;;;;5112963;28;20576;-76
2021/07/30 00:32:29;;;;;;;5.70;4.23;;;;;;;;;;5112881;28;20296;-76
2021/07/30 00:34:56;;;;;;;7.57;5.20;;;;;;;;;;5112713;28;20284;-76
2021/07/30 00:37:23;;;;;;;6.83;4.80;;;;;;;;;;5112875;28;20227;-76
2021/07/30 00:39:50;;;;;;;8.43;4.57;;;;;;;;;;5112658;28;20233;-76
2021/07/30 00:42:18;;;;;;;7.90;4.50;;;;;;;;;;5112664;28;20301;-77
2021/07/30 00:44:46;;;;;;;7.43;5.20;;;;;;;;;;5112389;28;20198;-76
2021/07/30 00:47:13;;;;;;;7.37;4.70;;;;;;;;;;5112804;28;20221;-76
2021/07/30 00:49:41;;;;;;;6.47;4.63;;;;;;;;;;5112630;28;20289;-76
2021/07/30 00:52:08;;;;;;;8.50;4.47;;;;;;;;;;5112192;28;20346;-76
2021/07/30 00:54:35;;;;;;;6.70;4.90;;;;;;;;;;5127679;27;20299;-76
2021/07/30 00:57:03;;;;;;;7.80;4.80;;;;;;;;;;5132884;27;20220;-76
2021/07/30 00:59:30;;;;;;;6.97;4.87;;;;;;;;;;5133286;27;20284;-76
2021/07/30 01:01:59;;;;;;;10.73;4.97;;;;;;;;;;5133043;27;20564;-76
2021/07/30 01:04:26;;;;;;;8.17;5.13;;;;;;;;;;5133091;27;20291;-76
2021/07/30 01:06:53;;;;;;;7.33;4.70;;;;;;;;;;5132705;27;20298;-76
2021/07/30 01:09:22;;;;;;;6.20;4.83;;;;;;;;;;5132479;27;20730;-76
2021/07/30 01:11:49;;;;;;;7.73;4.83;;;;;;;;;;5133015;27;20605;-76
2021/07/30 01:14:16;;;;;;;8.17;5.10;;;;;;;;;;5132888;27;20225;-76
2021/07/30 01:16:43;;;;;;;7.83;4.93;;;;;;;;;;5132849;27;20311;-77
2021/07/30 01:19:22;;;;;;;9.57;4.87;;;;;;;;;;5133079;27;20200;-75
2021/07/30 01:21:50;;;;;;;9.17;5.23;;;;;;;;;;5133105;27;20197;-76
2021/07/30 01:24:18;;;;;;;6.57;4.90;;;;;;;;;;5132486;27;20397;-76
2021/07/30 01:26:46;;;;;;;7.00;4.90;;;;;;;;;;5132730;27;20200;-76
2021/07/30 01:29:13;;;;;;;6.77;5.00;;;;;;;;;;5132899;27;20193;-76
2021/07/30 01:31:40;;;;;;;7.70;4.90;;;;;;;;;;5132579;27;20292;-77
2021/07/30 01:34:07;;;;;;;8.30;5.17;;;;;;;;;;5132877;27;20284;-76
2021/07/30 01:36:34;;;;;;;6.73;5.03;;;;;;;;;;5132505;27;20221;-76
2021/07/30 01:39:02;;;;;;;6.23;4.60;;;;;;;;;;5132482;27;20744;-76
2021/07/30 01:41:31;;;;;;;7.87;4.77;;;;;;;;;;5132633;27;20280;-76
2021/07/30 01:43:58;;;;;;;7.00;4.97;;;;;;;;;;5132597;27;20292;-76
2021/07/30 01:46:26;;;;;;;10.27;5.37;;;;;;;;;;5132619;27;20288;-76
2021/07/30 01:48:53;;;;;;;8.70;5.03;;;;;;;;;;5132922;27;20296;-76
2021/07/30 01:51:20;;;;;;;6.97;5.10;;;;;;;;;;5132714;27;20194;-76
2021/07/30 01:53:47;;;;;;;7.13;5.20;;;;;;;;;;5122940;27;20243;-76
2021/07/30 01:56:14;;;;;;;6.47;5.00;;;;;;;;;;5110872;28;20229;-76
2021/07/30 01:58:43;;;;;;;7.87;5.00;;;;;;;;;;5112232;28;20194;-76
2021/07/30 02:01:10;;;;;;;7.27;5.10;;;;;;;;;;5114251;28;20292;-76
2021/07/30 02:03:37;;;;;;;10.83;5.10;;;;;;;;;;5115734;28;20254;-76
2021/07/30 02:06:08;;;;;;;7.60;4.60;;;;;;;;;;5115679;28;20201;-76
2021/07/30 02:08:35;;;;;;;7.87;4.47;;;;;;;;;;5115410;28;20213;-76
2021/07/30 02:11:02;;;;;;;5.47;4.30;;;;;;;;;;5115777;27;20205;-77
2021/07/30 02:16:15;;;;;;;7.13;4.63;;;;;;;;;;5115303;28;20239;-76
2021/07/30 02:18:43;;;;;;;6.00;5.00;;;;;;;;;;5115297;28;20606;-76
2021/07/30 02:21:10;;;;;;;9.17;4.93;;;;;;;;;;5113861;28;20288;-77
2021/07/30 02:23:37;;;;;;;9.47;4.63;;;;;;;;;;5115000;27;20194;-76
2021/07/30 02:26:04;;;;;;;6.30;4.60;;;;;;;;;;5115196;28;20571;-76
2021/07/30 02:28:31;;;;;;;6.37;4.63;;;;;;;;;;5115321;28;20572;-76
2021/07/30 02:30:58;;;;;;;6.40;4.70;;;;;;;;;;5114907;28;20748;-76
2021/07/30 02:33:27;;;;;;;6.10;4.53;;;;;;;;;;5114856;28;20293;-76
2021/07/30 02:35:54;;;;;;;5.10;4.03;;;;;;;;;;5114714;28;20284;-76
2021/07/30 02:38:21;;;;;;;8.33;4.83;;;;;;;;;;5114855;28;20293;-76
2021/07/30 02:40:48;;;;;;;7.40;4.40;;;;;;;;;;5115093;28;20318;-76
2021/07/30 02:43:15;;;;;;;5.63;4.43;;;;;;;;;;5114923;27;20202;-76
2021/07/30 02:45:43;;;;;;;5.17;4.20;;;;;;;;;;5114896;28;20288;-76
2021/07/30 02:48:10;;;;;;;6.13;4.37;;;;;;;;;;5114742;28;20604;-76
2021/07/30 02:50:38;;;;;;;9.33;4.50;;;;;;;;;;5114400;28;20197;-76
2021/07/30 02:53:06;;;;;;;6.27;4.27;;;;;;;;;;5117123;27;20340;-76
2021/07/30 02:55:33;;;;;;;8.53;4.30;;;;;;;;;;5134954;27;20886;-76
2021/07/30 02:58:00;;;;;;;5.93;4.50;;;;;;;;;;5135018;27;20641;-77
2021/07/30 03:00:27;;;;;;;6.53;4.17;;;;;;;;;;5122620;27;20566;-76
2021/07/30 03:02:54;;;;;;;7.07;4.50;;;;;;;;;;5114387;28;20682;-76
2021/07/30 03:05:21;;;;;;;5.57;4.10;;;;;;;;;;5114120;28;20197;-76
2021/07/30 03:07:50;;;;;;;9.73;4.77;;;;;;;;;;5114087;28;20276;-76
2021/07/30 03:10:17;;;;;;;9.63;4.80;;;;;;;;;;5114066;28;20304;-76
2021/07/30 03:12:44;;;;;;;8.17;4.20;;;;;;;;;;5114199;27;20233;-76
2021/07/30 03:15:12;;;;;;;5.43;3.93;;;;;;;;;;5113959;28;20289;-76
2021/07/30 03:17:39;;;;;;;7.07;4.03;;;;;;;;;;5114239;28;20257;-76
2021/07/30 03:20:07;;;;;;;7.63;4.50;;;;;;;;;;5113924;28;20284;-76
2021/07/30 03:22:34;;;;;;;6.30;4.30;;;;;;;;;;5114172;28;20316;-76
2021/07/30 03:25:03;;;;;;;7.00;4.37;;;;;;;;;;5114235;28;20288;-77
2021/07/30 03:27:30;;;;;;;5.93;3.70;;;;;;;;;;5113961;28;20281;-77
2021/07/30 03:29:57;;;;;;;8.57;4.47;;;;;;;;;;5114246;28;20202;-76
2021/07/30 03:32:24;;;;;;;5.90;4.70;;;;;;;;;;5113916;28;20197;-76
2021/07/30 03:34:51;;;;;;;8.60;4.10;;;;;;;;;;5113509;28;20284;-76
2021/07/30 03:37:19;;;;;;;8.13;4.20;;;;;;;;;;5113626;27;20323;-76
2021/07/30 03:39:46;;;;;;;7.83;4.50;;;;;;;;;;5113978;28;20200;-76
2021/07/30 03:42:14;;;;;;;5.63;4.70;;;;;;;;;;5113480;28;20763;-76
2021/07/30 03:44:41;;;;;;;6.97;4.47;;;;;;;;;;5113683;28;20281;-76
2021/07/30 03:47:08;;;;;;;9.97;4.67;;;;;;;;;;5113622;28;20637;-76
2021/07/30 03:49:36;;;;;;;7.00;4.30;;;;;;;;;;5113317;28;20289;-76
2021/07/30 03:52:03;;;;;;;5.63;4.53;;;;;;;;;;5113252;28;20284;-76
2021/07/30 03:54:30;;;;;;;6.00;4.37;;;;;;;;;;5128424;27;20296;-76
2021/07/30 03:56:57;;;;;;;6.60;4.80;;;;;;;;;;5133725;27;20221;-76
2021/07/30 03:59:26;;;;;;;6.17;5.00;;;;;;;;;;5133904;27;20196;-76
2021/07/30 04:01:53;;;;;;;7.30;5.27;;;;;;;;;;5133768;27;20623;-76
2021/07/30 04:04:20;;;;;;;6.20;4.83;;;;;;;;;;5133290;27;20203;-76
2021/07/30 04:06:47;;;;;;;8.33;5.37;;;;;;;;;;5133657;27;20219;-76
2021/07/30 04:09:15;;;;;;;9.33;5.40;;;;;;;;;;5133802;27;20304;-76
2021/07/30 04:11:43;;;;;;;5.43;4.93;;;;;;;;;;5133890;27;20228;-76
2021/07/30 04:14:10;;;;;;;8.80;5.23;;;;;;;;;;5133377;27;20280;-76
2021/07/30 04:16:39;;;;;;;9.77;5.70;;;;;;;;;;5133317;27;20557;-76
2021/07/30 04:19:07;;;;;;;7.87;5.23;;;;;;;;;;5133297;27;20200;-76
2021/07/30 04:21:35;;;;;;;7.80;5.73;;;;;;;;;;5133572;27;20219;-76
2021/07/30 04:24:02;;;;;;;7.27;5.13;;;;;;;;;;5132936;27;20201;-76
2021/07/30 04:26:29;;;;;;;8.60;6.03;;;;;;;;;;5133454;27;20228;-76
2021/07/30 04:28:57;;;;;;;7.80;5.60;;;;;;;;;;5133468;27;20289;-76
2021/07/30 04:31:24;;;;;;;8.40;5.57;;;;;;;;;;5132849;27;20279;-76
2021/07/30 04:33:52;;;;;;;7.80;5.30;;;;;;;;;;5133298;27;20203;-76
2021/07/30 04:36:20;;;;;;;8.33;5.67;;;;;;;;;;5133360;27;20617;-76
2021/07/30 04:38:47;;;;;;;5.90;4.90;;;;;;;;;;5132904;27;20220;-76
2021/07/30 04:41:14;;;;;;;5.40;4.87;;;;;;;;;;5133176;27;20203;-75
2021/07/30 04:43:41;;;;;;;6.73;5.10;;;;;;;;;;5132958;27;20292;-76
2021/07/30 04:46:15;;;;;;;6.03;4.47;;;;;;;;;;5132689;27;20288;-76
2021/07/30 04:48:42;;;;;;;8.13;4.30;;;;;;;;;;5132917;27;20192;-76
2021/07/30 04:51:11;;;;;;;7.47;3.60;;;;;;;;;;5133147;27;20287;-77
2021/07/30 04:53:38;;;;;;;9.03;2.87;;;;;;;;;;5132566;27;20224;-77
2021/07/30 04:56:05;;;;;;;10.87;2.60;;;;;;;;;;5132942;27;20207;-76
2021/07/30 04:58:33;;;;;;;7.13;2.30;;;;;;;;;;5133055;27;20228;-76
2021/07/30 05:01:04;;;;;;;12.33;2.83;;;;;;;;;;5132479;27;20193;-76
2021/07/30 05:03:31;;;;;;;7.23;2.33;;;;;;;;;;5132912;27;20208;-77
2021/07/30 05:05:58;;;;;;;10.53;2.50;;;;;;;;;;5133214;27;20283;-76
2021/07/30 05:08:27;;;;;;;11.23;2.20;;;;;;;;;;5132922;27;20219;-77
2021/07/30 05:10:54;;;;;;;7.70;2.10;;;;;;;;;;5132918;27;20201;-77
2021/07/30 05:13:22;;;;;;;11.10;2.20;;;;;;;;;;5132787;27;20308;-77
2021/07/30 05:15:49;;;;;;;13.70;2.17;;;;;;;;;;5132673;27;20613;-76
2021/07/30 05:18:16;;;;;;;7.37;2.10;;;;;;;;;;5132857;27;20224;-76
2021/07/30 05:20:43;;;;;;;9.83;2.10;;;;;;;;;;5132833;27;20193;-77
2021/07/30 05:23:11;;;;;;;12.47;2.27;;;;;;;;;;5132839;27;20228;-77
2021/07/30 05:25:40;;;;;;;6.03;1.70;;;;;;;;;;5132822;27;20904;-77
2021/07/30 05:28:07;;;;;;;11.67;2.40;;;;;;;;;;5133214;27;20221;-76
2021/07/30 05:30:36;;;;;;;9.23;2.27;;;;;;;;;;5132795;27;20287;-77
2021/07/30 05:33:03;;;;;;;8.30;2.33;;;;;;;;;;5132571;27;20288;-77
2021/07/30 05:35:30;;;;;;;9.03;2.50;;;;;;;;;;5133972;27;20300;-77
2021/07/30 05:37:57;;;;;;;10.00;2.23;;;;;;;;;;5136433;27;20568;-76
2021/07/30 05:40:24;;;;;;;12.83;2.90;;;;;;;;;;5136647;27;20273;-76
2021/07/30 05:42:53;;;;;;;8.73;2.30;;;;;;;;;;5136622;27;20611;-76
2021/07/30 05:45:20;;;;;;;8.33;2.17;;;;;;;;;;5136171;27;20193;-76
2021/07/30 05:47:48;;;;;;;10.00;2.13;;;;;;;;;;5136475;27;20300;-77
2021/07/30 05:50:16;;;;;;;14.40;2.70;;;;;;;;;;5136453;27;20204;-76
2021/07/30 05:52:43;;;;;;;10.80;2.23;;;;;;;;;;5136063;27;20323;-76
2021/07/30 05:55:10;;;;;;;10.10;3.07;;;;;;;;;;5136194;27;20229;-76
2021/07/30 05:57:38;;;;;;;11.10;2.50;;;;;;;;;;5136002;27;20228;-76
2021/07/30 06:00:07;;;;;;;13.97;2.47;;;;;;;;;;5134968;27;20197;-77
2021/07/30 06:02:35;;;;;;;9.00;2.53;;;;;;;;;;5134882;27;20368;-78
2021/07/30 06:05:02;;;;;;;8.47;2.77;;;;;;;;;;5136353;27;20283;-77
2021/07/30 06:07:29;;;;;;;7.67;2.23;;;;;;;;;;5136024;27;20668;-77
2021/07/30 06:09:56;;;;;;;10.75;2.38;;;;;;;;;;5136106;27;20303;-77
2021/07/30 06:12:23;;;;;;;10.05;2.50;;;;;;;;;;5136376;27;20284;-77
2021/07/30 06:14:51;;;;;;;12.13;2.47;;;;;;;;;;5135482;27;20684;-77
2021/07/30 06:17:19;;;;;;;11.35;2.60;;;;;;;;;;5135786;27;20224;-77
2021/07/30 06:19:47;;;;;;;8.73;2.15;;;;;;;;;;5135595;27;20240;-77
2021/07/30 06:22:14;;;;;;;11.80;2.30;;;;;;;;;;5135901;27;20209;-77
2021/07/30 06:24:41;;;;;;;9.50;2.35;;;;;;;;;;5135627;27;20292;-77
2021/07/30 06:27:09;;;;;;;9.88;2.28;;;;;;;;;;5135981;27;20266;-77
2021/07/30 06:29:36;;;;;;;8.25;2.50;;;;;;;;;;5134985;27;20847;-77
2021/07/30 06:32:03;;;;;;;8.57;2.40;;;;;;;;;;5135730;27;20232;-77
2021/07/30 06:34:32;;;;;;;8.65;2.10;;;;;;;;;;5135735;27;20724;-76
2021/07/30 06:36:59;;;;;;;12.55;2.47;;;;;;;;;;5135658;27;20299;-77
2021/07/30 06:39:26;;;;;;;9.85;2.88;;;;;;;;;;5135436;27;20766;-78
2021/07/30 06:41:53;;;;;;;8.93;2.35;;;;;;;;;;5135003;27;20735;-77
2021/07/30 06:44:22;;;;;;;10.32;2.60;;;;;;;;;;5135628;27;20284;-77
2021/07/30 06:46:49;;;;;;;10.05;2.38;;;;;;;;;;5134958;27;20205;-76
2021/07/30 06:49:16;;;;;;;12.82;2.60;;;;;;;;;;5135487;27;20280;-77
2021/07/30 06:51:45;;;;;;;11.77;2.60;;;;;;;;;;5135402;27;20827;-76
2021/07/30 06:54:12;;;;;;;12.40;2.55;;;;;;;;;;5135097;27;20291;-77
2021/07/30 06:56:39;;;;;;;8.30;2.10;;;;;;;;;;5134817;27;20580;-77
2021/07/30 06:59:08;;;;;;;7.65;2.13;;;;;;;;;;5135258;27;20729;-77
2021/07/30 07:01:35;;;;;;;10.75;2.13;;;;;;;;;;5135275;27;20207;-76
2021/07/30 07:04:02;;;;;;;10.88;2.40;;;;;;;;;;5135175;27;20612;-77
2021/07/30 07:06:29;;;;;;;10.88;2.10;;;;;;;;;;5134899;27;20618;-77
2021/07/30 07:08:58;;;;;;;10.43;2.50;;;;;;;;;;5134760;27;20300;-76
2021/07/30 07:11:25;;;;;;;8.63;2.15;;;;;;;;;;5134521;27;20204;-78
2021/07/30 07:13:52;;;;;;;9.35;2.58;;;;;;;;;;5134791;27;20284;-77
2021/07/30 07:16:20;;;;;;;9.82;2.22;;;;;;;;;;5134984;27;20292;-78
2021/07/30 07:18:47;;;;;;;6.95;2.13;;;;;;;;;;5134496;27;20738;-77
2021/07/30 07:21:15;;;;;;;8.05;2.13;;;;;;;;;;5134518;27;20620;-77
2021/07/30 07:23:42;;;;;;;8.25;2.20;;;;;;;;;;5134450;27;20209;-77
2021/07/30 07:26:11;;;;;;;8.68;2.17;;;;;;;;;;5134441;27;20215;-77
2021/07/30 07:28:38;;;;;;;8.63;2.40;;;;;;;;;;5134354;27;20289;-77
2021/07/30 07:31:05;;;;;;;8.95;2.13;;;;;;;;;;5134667;27;20297;-77
2021/07/30 07:33:32;;;;;;;10.23;2.60;;;;;;;;;;5134343;27;20711;-77
2021/07/30 07:35:59;;;;;;;8.38;2.08;;;;;;;;;;5134437;27;20504;-77
2021/07/30 07:38:27;;;;;;;8.77;2.30;;;;;;;;;;5134586;27;20216;-77
2021/07/30 07:40:54;;;;;;;6.20;1.80;;;;;;;;;;5133887;27;20291;-77
2021/07/30 07:43:22;;;;;;;9.90;2.08;;;;;;;;;;5134138;27;20311;-77
2021/07/30 07:45:50;;;;;;;8.68;2.05;;;;;;;;;;5134128;27;20197;-77
2021/07/30 07:48:17;;;;;;;8.52;1.85;;;;;;;;;;5134342;27;20296;-77
2021/07/30 07:50:44;;;;;;;8.18;2.03;;;;;;;;;;5134158;27;20288;-77
2021/07/30 07:53:15;;;;;;;7.68;2.25;;;;;;;;;;5129679;27;20661;-77
2021/07/30 07:55:42;;;;;;;7.75;2.47;;;;;;;;;;5113251;28;20193;-76
2021/07/30 07:58:09;;;;;;;8.40;2.30;;;;;;;;;;5112585;28;20310;-77
2021/07/30 08:00:38;;;;;;;6.90;2.10;;;;;;;;;;5113713;28;20284;-77
2021/07/30 08:03:05;;;;;;;6.20;1.98;;;;;;;;;;5113419;28;20276;-77
2021/07/30 08:05:32;;;;;;;9.02;2.15;;;;;;;;;;5113188;28;20194;-77
2021/07/30 08:08:00;;;;;;;6.28;1.80;;;;;;;;;;5113005;28;20284;-78
2021/07/30 08:10:27;;;;;;;8.98;2.03;;;;;;;;;;5113001;28;20202;-77
2021/07/30 08:12:54;;;;;;;8.02;2.08;;;;;;;;;;5113050;28;20288;-77
2021/07/30 08:15:21;;;;;;;7.82;2.03;;;;;;;;;;5113319;28;20259;-77
2021/07/30 08:17:50;;;;;;;6.38;1.75;;;;;;;;;;5112887;28;20289;-77
2021/07/30 08:20:17;;;;;;;9.45;1.88;;;;;;;;;;5113260;28;20281;-77
2021/07/30 08:22:44;;;;;;;7.82;1.95;;;;;;;;;;5113022;28;20364;-77
2021/07/30 08:25:12;;;;;;;7.07;2.05;;;;;;;;;;5112700;28;20202;-77
2021/07/30 08:27:40;;;;;;;6.30;1.90;;;;;;;;;;5112893;28;20284;-77
2021/07/30 08:30:08;;;;;;;9.48;2.10;;;;;;;;;;5113108;28;20280;-77
2021/07/30 08:32:35;;;;;;;9.80;2.40;;;;;;;;;;5112700;28;20617;-77
2021/07/30 08:35:04;;;;;;;8.88;2.22;;;;;;;;;;5112937;28;20200;-77
2021/07/30 08:37:31;;;;;;;7.10;1.98;;;;;;;;;;5112813;28;20232;-77
2021/07/30 08:39:58;;;;;;;6.63;2.17;;;;;;;;;;5112196;28;20650;-77
2021/07/30 08:42:26;;;;;;;5.53;1.80;;;;;;;;;;5112638;28;20197;-78
2021/07/30 08:44:53;;;;;;;6.70;1.80;;;;;;;;;;5112500;28;20293;-77
2021/07/30 08:47:22;;;;;;;5.55;1.88;;;;;;;;;;5112954;28;20197;-77
2021/07/30 08:49:49;;;;;;;7.75;1.98;;;;;;;;;;5112834;28;20250;-77
2021/07/30 08:52:19;;;;;;;8.00;2.10;;;;;;;;;;5112096;28;20324;-78
2021/07/30 08:54:51;;;;;;;6.53;2.05;;;;;;;;;;5112302;27;20251;-77
2021/07/30 08:57:18;;;;;;;5.85;1.65;;;;;;;;;;5112281;28;20285;-77
2021/07/30 08:59:46;;;;;;;4.63;2.08;;;;;;;;;;5112704;28;20312;-77
2021/07/30 09:02:13;;;;;;;8.00;2.00;;;;;;;;;;5112284;28;20198;-77
2021/07/30 09:04:40;;;;;;;5.70;1.90;;;;;;;;;;5112484;28;20229;-77
2021/07/30 09:07:07;;;;;;;6.78;1.80;;;;;;;;;;5112169;28;20207;-77
2021/07/30 09:09:36;;;;;;;7.57;2.10;;;;;;;;;;5114016;28;20308;-77
2021/07/30 09:12:05;;;;;;;6.47;2.17;;;;;;;;;;5116606;28;20288;-77
2021/07/30 09:14:33;;;;;;;6.63;1.90;;;;;;;;;;5116748;28;20228;-77
2021/07/30 09:17:00;;;;;;;9.23;2.05;;;;;;;;;;5116251;28;20681;-77
2021/07/30 09:19:28;;;;;;;7.60;2.13;;;;;;;;;;5116722;28;20317;-77
2021/07/30 09:22:05;;;;;;;7.35;1.95;;;;;;;;;;5116436;28;20208;-77
2021/07/30 09:24:38;;;;;;;9.73;1.88;;;;;;;;;;5116708;28;20193;-77
2021/07/30 09:27:07;;;;;;;5.47;1.70;;;;;;;;;;5116401;28;20201;-77
2021/07/30 09:29:34;;;;;;;6.05;1.90;;;;;;;;;;5116118;28;20262;-77
2021/07/30 09:32:02;;;;;;;5.68;1.90;;;;;;;;;;5116318;28;20288;-77
2021/07/30 09:34:30;;;;;;;7.45;1.95;;;;;;;;;;5116387;28;20296;-77
2021/07/30 09:36:59;;;;;;;6.50;1.92;;;;;;;;;;5115988;28;20675;-78
2021/07/30 09:39:27;;;;;;;6.25;2.00;;;;;;;;;;5116290;28;20222;-77
2021/07/30 09:41:59;;;;;;;6.20;1.88;;;;;;;;;;5116415;28;20608;-77
2021/07/30 09:44:26;;;;;;;4.88;1.70;;;;;;;;;;5116271;28;20251;-78
2021/07/30 09:47:03;;;;;;;6.28;2.25;;;;;;;;;;5115924;28;20288;-78
2021/07/30 09:49:37;;;;;;;7.15;1.92;;;;;;;;;;5116001;27;20228;-78
2021/07/30 09:52:04;;;;;;;8.73;2.42;;;;;;;;;;5115252;28;20736;-77
2021/07/30 09:54:33;;;;;;;5.97;2.20;;;;;;;;;;5116110;28;20668;-78
2021/07/30 09:57:04;;;;;;;5.50;2.20;;;;;;;;;;5115888;28;20624;-78
2021/07/30 09:59:33;;;;;;;9.80;2.10;;;;;;;;;;5115826;28;20308;-78
2021/07/30 10:02:01;;;;;;;5.70;1.92;;;;;;;;;;5115924;28;20252;-78
2021/07/30 10:04:29;;;;;;;4.03;1.80;;;;;;;;;;5116162;28;20236;-78
2021/07/30 10:06:56;;;;;;;4.50;1.85;;;;;;;;;;5115229;28;20297;-77
2021/07/30 10:09:23;;;;;;;5.07;2.10;;;;;;;;;;5115729;28;20304;-78
2021/07/30 10:11:50;;;;;;;8.98;2.03;;;;;;;;;;5115345;28;20236;-77
2021/07/30 10:14:25;;;;;;;6.95;2.05;;;;;;;;;;5115437;28;20719;-77
2021/07/30 10:16:57;;;;;;;7.05;2.33;;;;;;;;;;5115570;27;20203;-77
2021/07/30 10:19:25;;;;;;;4.18;2.00;;;;;;;;;;5115120;28;20317;-77
2021/07/30 10:21:52;;;;;;;9.68;2.53;;;;;;;;;;5114503;28;20201;-77
2021/07/30 10:24:20;;;;;;;6.30;1.85;;;;;;;;;;5115598;28;20201;-77
2021/07/30 10:26:48;;;;;;;6.35;1.95;;;;;;;;;;5115386;28;20202;-77
2021/07/30 10:29:15;;;;;;;6.93;1.70;;;;;;;;;;5115508;28;20285;-78
2021/07/30 10:31:49;;;;;;;7.85;2.00;;;;;;;;;;5115251;28;20254;-77
2021/07/30 10:34:17;;;;;;;6.70;2.05;;;;;;;;;;5114856;28;20297;-77
2021/07/30 10:36:44;;;;;;;6.88;1.83;;;;;;;;;;5115066;28;20229;-77
2021/07/30 10:39:18;;;;;;;3.78;1.70;;;;;;;;;;5115093;28;20224;-77
2021/07/30 10:42:04;;;;;;;5.68;1.65;;;;;;;;;;5115260;28;20654;-77
2021/07/30 10:44:31;;;;;;;4.97;1.58;;;;;;;;;;5115143;28;20285;-77
2021/07/30 10:47:29;;;;;;;2.75;1.63;;;;;;;;;;5114930;28;20213;-77
2021/07/30 10:49:58;;;;;;;4.68;1.70;;;;;;;;;;5051518;28;20266;-77
2021/07/30 10:52:26;;;;;;;13.02;7.28;;;;;;;;;;5051422;28;20731;-77
2021/07/30 10:54:54;;;;;;;234.95;104.93;;;;;;;;;;5051512;28;20334;-77
2021/07/30 10:57:39;;;;;;;15.48;9.18;;;;;;;;;;5051674;28;20196;-77
2021/07/30 11:00:07;;;;;;;7.63;2.60;;;;;;;;;;5051322;28;20234;-77
2021/07/30 11:02:49;;;;;;;6.13;2.05;;;;;;;;;;5051440;28;20241;-78
2021/07/30 11:05:18;;;;;;;3.72;2.00;;;;;;;;;;5050959;28;20230;-78
2021/07/30 11:07:45;;;;;;;5.75;1.90;;;;;;;;;;5051459;28;20199;-77
2021/07/30 11:10:16;;;;;;;4.40;2.17;;;;;;;;;;5051464;28;20195;-77
2021/07/30 11:12:43;;;;;;;5.03;1.70;;;;;;;;;;5051322;28;20242;-78
2021/07/30 11:15:11;;;;;;;6.50;1.90;;;;;;;;;;5051486;28;20199;-78
2021/07/30 11:17:38;;;;;;;6.53;2.50;;;;;;;;;;5050912;28;20294;-77
2021/07/30 11:20:06;;;;;;;5.72;1.80;;;;;;;;;;5050935;28;20314;-77
2021/07/30 11:22:39;;;;;;;6.68;2.05;;;;;;;;;;5051132;28;20578;-77
2021/07/30 11:25:07;;;;;;;3.85;1.48;;;;;;;;;;5108417;28;20691;-77
2021/07/30 11:27:34;;;;;;;4.95;1.75;;;;;;;;;;5114266;28;20240;-77
2021/07/30 11:30:01;;;;;;;4.32;1.77;;;;;;;;;;5114269;28;20229;-77
2021/07/30 11:32:30;;;;;;;5.88;1.73;;;;;;;;;;5113152;28;20287;-77
2021/07/30 11:34:57;;;;;;;5.20;1.63;;;;;;;;;;5113683;28;20202;-77
2021/07/30 11:37:25;;;;;;;6.68;1.80;;;;;;;;;;5114184;28;20292;-77
2021/07/30 11:39:54;;;;;;;4.85;1.80;;;;;;;;;;5114373;28;20221;-76
2021/07/30 11:42:26;;;;;;;7.43;1.83;;;;;;;;;;5114002;28;20198;-77
2021/07/30 11:44:55;;;;;;;5.93;1.92;;;;;;;;;;5113775;28;20202;-76
2021/07/30 11:47:22;;;;;;;5.88;2.00;;;;;;;;;;5113219;28;20197;-77
2021/07/30 11:49:50;;;;;;;4.93;1.85;;;;;;;;;;5113877;28;20285;-77
2021/07/30 11:52:21;;;;;;;4.28;1.77;;;;;;;;;;5113793;28;20261;-76
2021/07/30 11:54:48;;;;;;;5.63;1.85;;;;;;;;;;5113613;27;20209;-76
2021/07/30 11:57:27;;;;;;;5.10;1.00;;;;;;;;;;5114077;28;20289;-76
2021/07/30 11:59:55;;;;;;;3.92;1.13;;;;;;;;;;5113401;28;20677;-76
2021/07/30 12:02:25;;;;;;;2.80;1.10;;;;;;;;;;5112961;28;20201;-76
2021/07/30 12:04:53;;;;;;;3.45;1.33;;;;;;;;;;5113251;28;20290;-76
2021/07/30 12:07:22;;;;;;;4.03;1.50;;;;;;;;;;5113374;28;20292;-77
2021/07/30 12:09:51;;;;;;;4.03;1.42;;;;;;;;;;5113148;28;20642;-76
2021/07/30 12:12:18;;;;;;;2.90;1.30;;;;;;;;;;5112938;28;20281;-77
2021/07/30 12:14:49;;;;;;;4.85;1.63;;;;;;;;;;5113143;28;20207;-77
2021/07/30 12:17:17;;;;;;;3.50;1.65;;;;;;;;;;5112640;28;20630;-77
2021/07/30 12:19:45;;;;;;;3.40;1.77;;;;;;;;;;5113037;28;20312;-77
2021/07/30 12:22:12;;;;;;;6.90;1.80;;;;;;;;;;5113031;28;20288;-77
2021/07/30 12:24:48;;;;;;;4.88;1.67;;;;;;;;;;5112771;28;20200;-77
2021/07/30 12:27:19;;;;;;;4.90;1.25;;;;;;;;;;5113263;28;20204;-77
2021/07/30 12:29:47;;;;;;;3.40;1.50;;;;;;;;;;5112461;28;20284;-78
2021/07/30 12:32:19;;;;;;;2.65;1.23;;;;;;;;;;5112943;28;20198;-77
2021/07/30 12:35:00;;;;;;;3.75;1.42;;;;;;;;;;5112670;28;20208;-77
2021/07/30 12:37:27;;;;;;;3.13;1.10;;;;;;;;;;5112935;28;20288;-77
2021/07/30 12:39:56;;;;;;;2.38;1.30;;;;;;;;;;5112620;28;20225;-77
2021/07/30 12:42:24;;;;;;;4.25;1.30;;;;;;;;;;5112646;28;20673;-77
2021/07/30 12:45:01;;;;;;;4.78;1.45;;;;;;;;;;5111640;28;20288;-77
2021/07/30 12:47:29;;;;;;;3.33;1.50;;;;;;;;;;5112430;28;20325;-77
2021/07/30 12:49:58;;;;;;;4.25;1.77;;;;;;;;;;5112611;28;20280;-77
2021/07/30 12:52:25;;;;;;;4.75;1.48;;;;;;;;;;5112147;28;20239;-77
2021/07/30 12:55:04;;;;;;;5.45;1.50;;;;;;;;;;5131022;27;20826;-77
2021/07/30 12:57:52;;;;;;;3.45;1.30;;;;;;;;;;5132866;27;20200;-78
2021/07/30 13:00:30;;;;;;;3.60;1.23;;;;;;;;;;5132802;27;20231;-77
2021/07/30 13:02:59;;;;;;;4.20;1.77;;;;;;;;;;5132930;27;20209;-77
2021/07/30 13:05:30;;;;;;;5.03;1.40;;;;;;;;;;5133195;27;20221;-77
2021/07/30 13:07:57;;;;;;;5.07;1.98;;;;;;;;;;5132885;27;20196;-78
2021/07/30 13:10:25;;;;;;;3.33;1.45;;;;;;;;;;5133286;27;20527;-78
2021/07/30 13:12:53;;;;;;;3.20;1.80;;;;;;;;;;5133060;27;20287;-77
2021/07/30 13:15:20;;;;;;;5.60;1.83;;;;;;;;;;5132947;27;20288;-77
2021/07/30 13:17:47;;;;;;;5.38;1.88;;;;;;;;;;5132153;27;20571;-78
2021/07/30 13:20:16;;;;;;;6.53;1.67;;;;;;;;;;5132855;27;20315;-78
2021/07/30 13:22:43;;;;;;;3.50;1.50;;;;;;;;;;5132615;27;20197;-77
2021/07/30 13:25:11;;;;;;;3.47;1.50;;;;;;;;;;5132985;27;20276;-78
2021/07/30 13:27:38;;;;;;;4.97;1.42;;;;;;;;;;5132837;27;20203;-77
2021/07/30 13:30:06;;;;;;;4.47;2.05;;;;;;;;;;5132734;27;20295;-77
2021/07/30 13:32:33;;;;;;;6.93;1.70;;;;;;;;;;5133026;27;20288;-77
2021/07/30 13:35:00;;;;;;;8.15;2.00;;;;;;;;;;5132724;27;20235;-77
2021/07/30 13:37:29;;;;;;;4.60;1.70;;;;;;;;;;5132904;27;20198;-77
2021/07/30 13:39:56;;;;;;;4.95;1.77;;;;;;;;;;5132511;27;20303;-77
2021/07/30 13:42:23;;;;;;;4.70;1.80;;;;;;;;;;5132275;27;20289;-77
2021/07/30 13:44:54;;;;;;;4.93;1.75;;;;;;;;;;5132512;27;20300;-77
2021/07/30 13:47:21;;;;;;;6.30;1.75;;;;;;;;;;5132525;27;20200;-77
2021/07/30 13:49:48;;;;;;;3.50;1.48;;;;;;;;;;5132487;27;20198;-77
2021/07/30 13:52:16;;;;;;;4.57;1.70;;;;;;;;;;5132261;27;20275;-77
2021/07/30 13:54:45;;;;;;;4.45;1.90;;;;;;;;;;5115146;27;20301;-77
2021/07/30 13:57:12;;;;;;;7.38;1.98;;;;;;;;;;5113980;28;20689;-77
2021/07/30 13:59:39;;;;;;;6.75;1.90;;;;;;;;;;5115360;28;20622;-77
2021/07/30 14:02:06;;;;;;;4.03;1.70;;;;;;;;;;5115644;28;20289;-77
2021/07/30 14:04:35;;;;;;;6.63;1.80;;;;;;;;;;5115817;28;20193;-77
2021/07/30 14:07:03;;;;;;;6.80;1.83;;;;;;;;;;5115652;28;20202;-77
2021/07/30 14:09:33;;;;;;;5.80;1.90;;;;;;;;;;5115346;28;20309;-77
2021/07/30 14:12:02;;;;;;;7.38;1.98;;;;;;;;;;5114963;28;20288;-76
2021/07/30 14:14:29;;;;;;;5.38;1.92;;;;;;;;;;5115282;28;20748;-77
2021/07/30 14:16:57;;;;;;;5.30;2.42;;;;;;;;;;5115254;28;20200;-77
2021/07/30 14:19:24;;;;;;;7.07;1.75;;;;;;;;;;5115699;28;20197;-77
2021/07/30 14:21:51;;;;;;;3.97;1.63;;;;;;;;;;5115185;28;20619;-77
2021/07/30 14:24:19;;;;;;;4.25;1.42;;;;;;;;;;5115448;28;20205;-77
2021/07/30 14:26:46;;;;;;;4.35;1.45;;;;;;;;;;5114825;28;20696;-77
2021/07/30 14:29:14;;;;;;;3.92;1.30;;;;;;;;;;5114885;28;20288;-77
2021/07/30 14:31:42;;;;;;;4.00;1.75;;;;;;;;;;5115075;28;20198;-77
2021/07/30 14:34:09;;;;;;;4.68;1.50;;;;;;;;;;5114757;28;20204;-77
2021/07/30 14:36:36;;;;;;;5.80;1.70;;;;;;;;;;5114971;28;20649;-77
2021/07/30 14:39:04;;;;;;;4.60;1.80;;;;;;;;;;5114689;28;20269;-77
2021/07/30 14:41:31;;;;;;;3.28;1.52;;;;;;;;;;5114424;28;20781;-77
2021/07/30 14:43:58;;;;;;;8.30;1.95;;;;;;;;;;5114517;28;20204;-77
2021/07/30 14:46:30;;;;;;;6.35;2.00;;;;;;;;;;5114651;28;20739;-77
2021/07/30 14:48:57;;;;;;;4.65;1.60;;;;;;;;;;5114684;28;20296;-77